sensor_id;sensor_type;location;lat;lon;timestamp;pressure;altitude;pressure_sealevel;temperature;humidity
12793;BME280;6460;42.684;23.260;2023-08-30T00:01:12;93675.09;;;22.69;76.42
12793;BME280;6460;42.684;23.260;2023-08-30T00:03:39;93670.44;;;22.30;74.56
12793;BME280;6460;42.684;23.260;2023-08-30T00:06:07;93665.63;;;22.43;73.17
12793;BME280;6460;42.684;23.260;2023-08-30T00:08:34;93664.19;;;22.20;74.41
12793;BME280;6460;42.684;23.260;2023-08-30T00:11:01;93654.47;;;22.28;75.22
12793;BME280;6460;42.684;23.260;2023-08-30T00:13:30;93662.47;;;22.04;74.30
12793;BME280;6460;42.684;23.260;2023-08-30T00:16:00;93678.13;;;21.82;75.55
12793;BME280;6460;42.684;23.260;2023-08-30T00:18:29;93683.13;;;21.53;77.21
12793;BME280;6460;42.684;23.260;2023-08-30T00:20:56;93690.44;;;21.56;76.51
12793;BME280;6460;42.684;23.260;2023-08-30T00:23:24;93689.56;;;21.59;76.94
12793;BME280;6460;42.684;23.260;2023-08-30T00:25:51;93677.34;;;21.73;76.16
12793;BME280;6460;42.684;23.260;2023-08-30T00:28:18;93668.91;;;21.67;76.73
12793;BME280;6460;42.684;23.260;2023-08-30T00:30:46;93666.81;;;21.71;76.63
12793;BME280;6460;42.684;23.260;2023-08-30T00:33:14;93672.47;;;21.46;77.31
12793;BME280;6460;42.684;23.260;2023-08-30T00:35:41;93672.47;;;21.46;76.95
12793;BME280;6460;42.684;23.260;2023-08-30T00:38:08;93671.69;;;21.24;77.98
12793;BME280;6460;42.684;23.260;2023-08-30T00:40:38;93670.22;;;21.32;77.32
12793;BME280;6460;42.684;23.260;2023-08-30T00:43:07;93663.56;;;21.33;77.25
12793;BME280;6460;42.684;23.260;2023-08-30T00:45:37;93664.16;;;21.28;77.50
12793;BME280;6460;42.684;23.260;2023-08-30T00:48:06;93671.88;;;21.29;77.30
12793;BME280;6460;42.684;23.260;2023-08-30T00:50:36;93690.59;;;21.31;76.86
12793;BME280;6460;42.684;23.260;2023-08-30T00:53:03;93693.56;;;21.24;77.04
12793;BME280;6460;42.684;23.260;2023-08-30T00:55:32;93691.84;;;21.17;76.67
12793;BME280;6460;42.684;23.260;2023-08-30T00:58:00;93696.69;;;21.00;77.30
12793;BME280;6460;42.684;23.260;2023-08-30T01:00:27;93706.19;;;21.08;77.45
12793;BME280;6460;42.684;23.260;2023-08-30T01:02:55;93689.06;;;20.95;78.05
12793;BME280;6460;42.684;23.260;2023-08-30T01:05:23;93694.63;;;20.57;79.30
12793;BME280;6460;42.684;23.260;2023-08-30T01:07:52;93694.91;;;20.72;79.50
12793;BME280;6460;42.684;23.260;2023-08-30T01:10:24;93696.22;;;20.80;79.37
12793;BME280;6460;42.684;23.260;2023-08-30T01:12:59;93698.03;;;20.49;80.78
12793;BME280;6460;42.684;23.260;2023-08-30T01:15:28;93701.41;;;20.53;80.63
12793;BME280;6460;42.684;23.260;2023-08-30T01:17:57;93697.47;;;20.54;80.33
12793;BME280;6460;42.684;23.260;2023-08-30T01:20:26;93698.69;;;20.53;80.28
12793;BME280;6460;42.684;23.260;2023-08-30T01:23:00;93707.44;;;20.48;80.59
12793;BME280;6460;42.684;23.260;2023-08-30T01:25:43;93700.13;;;20.45;80.91
12793;BME280;6460;42.684;23.260;2023-08-30T01:28:16;93712.63;;;20.55;80.61
12793;BME280;6460;42.684;23.260;2023-08-30T01:30:46;93705.25;;;20.43;80.03
12793;BME280;6460;42.684;23.260;2023-08-30T01:33:16;93697.88;;;20.65;79.57
12793;BME280;6460;42.684;23.260;2023-08-30T01:35:44;93695.34;;;20.83;78.41
12793;BME280;6460;42.684;23.260;2023-08-30T01:38:12;93691.84;;;20.83;78.62
12793;BME280;6460;42.684;23.260;2023-08-30T01:40:42;93681.63;;;20.96;77.27
12793;BME280;6460;42.684;23.260;2023-08-30T01:43:10;93684.03;;;20.94;77.11
12793;BME280;6460;42.684;23.260;2023-08-30T01:45:42;93680.69;;;20.90;77.54
12793;BME280;6460;42.684;23.260;2023-08-30T01:50:57;93693.81;;;21.17;77.74
12793;BME280;6460;42.684;23.260;2023-08-30T01:53:25;93698.13;;;21.27;76.60
12793;BME280;6460;42.684;23.260;2023-08-30T01:55:54;93702.28;;;21.53;75.73
12793;BME280;6460;42.684;23.260;2023-08-30T01:58:22;93690.53;;;21.43;75.23
12793;BME280;6460;42.684;23.260;2023-08-30T02:00:50;93691.00;;;21.51;75.73
12793;BME280;6460;42.684;23.260;2023-08-30T02:03:17;93684.94;;;21.47;76.01
12793;BME280;6460;42.684;23.260;2023-08-30T02:05:52;93694.03;;;20.75;78.71
12793;BME280;6460;42.684;23.260;2023-08-30T02:08:26;93685.84;;;21.09;78.48
12793;BME280;6460;42.684;23.260;2023-08-30T02:10:59;93691.41;;;21.06;77.25
12793;BME280;6460;42.684;23.260;2023-08-30T02:13:30;93689.00;;;20.86;78.02
12793;BME280;6460;42.684;23.260;2023-08-30T02:16:00;93683.84;;;21.23;77.12
12793;BME280;6460;42.684;23.260;2023-08-30T02:18:28;93685.69;;;20.91;77.15
12793;BME280;6460;42.684;23.260;2023-08-30T02:20:56;93689.50;;;21.28;76.08
12793;BME280;6460;42.684;23.260;2023-08-30T02:23:23;93690.19;;;21.41;75.62
12793;BME280;6460;42.684;23.260;2023-08-30T02:25:51;93682.19;;;21.47;74.63
12793;BME280;6460;42.684;23.260;2023-08-30T02:28:18;93692.22;;;21.50;75.07
12793;BME280;6460;42.684;23.260;2023-08-30T02:30:46;93681.28;;;21.50;76.27
12793;BME280;6460;42.684;23.260;2023-08-30T02:33:14;93683.97;;;21.41;76.68
12793;BME280;6460;42.684;23.260;2023-08-30T02:35:41;93683.97;;;21.41;76.34
12793;BME280;6460;42.684;23.260;2023-08-30T02:38:08;93684.94;;;21.47;76.68
12793;BME280;6460;42.684;23.260;2023-08-30T02:40:36;93682.69;;;21.54;75.78
12793;BME280;6460;42.684;23.260;2023-08-30T02:43:03;93683.31;;;21.58;75.63
12793;BME280;6460;42.684;23.260;2023-08-30T02:45:31;93679.25;;;21.63;74.96
12793;BME280;6460;42.684;23.260;2023-08-30T02:47:58;93677.13;;;21.67;75.02
12793;BME280;6460;42.684;23.260;2023-08-30T02:50:26;93684.84;;;21.59;74.86
12793;BME280;6460;42.684;23.260;2023-08-30T02:52:54;93680.66;;;21.46;75.20
12793;BME280;6460;42.684;23.260;2023-08-30T02:55:21;93679.25;;;21.41;75.57
12793;BME280;6460;42.684;23.260;2023-08-30T02:57:48;93668.19;;;21.45;75.30
12793;BME280;6460;42.684;23.260;2023-08-30T03:00:16;93668.47;;;21.38;76.01
12793;BME280;6460;42.684;23.260;2023-08-30T03:02:43;93668.47;;;21.38;74.65
12793;BME280;6460;42.684;23.260;2023-08-30T03:05:10;93670.63;;;21.21;74.90
12793;BME280;6460;42.684;23.260;2023-08-30T03:07:39;93674.50;;;21.11;74.82
12793;BME280;6460;42.684;23.260;2023-08-30T03:10:07;93677.94;;;20.90;75.73
12793;BME280;6460;42.684;23.260;2023-08-30T03:12:34;93683.13;;;21.09;73.93
12793;BME280;6460;42.684;23.260;2023-08-30T03:15:02;93691.78;;;20.95;74.55
12793;BME280;6460;42.684;23.260;2023-08-30T03:17:30;93685.03;;;20.53;75.38
12793;BME280;6460;42.684;23.260;2023-08-30T03:19:57;93687.31;;;20.67;74.74
12793;BME280;6460;42.684;23.260;2023-08-30T03:22:25;93682.72;;;20.64;75.85
12793;BME280;6460;42.684;23.260;2023-08-30T03:24:54;93671.50;;;20.84;74.29
12793;BME280;6460;42.684;23.260;2023-08-30T03:27:22;93664.72;;;20.88;73.32
12793;BME280;6460;42.684;23.260;2023-08-30T03:29:49;93659.50;;;20.81;73.53
12793;BME280;6460;42.684;23.260;2023-08-30T03:32:17;93664.50;;;20.61;73.43
12793;BME280;6460;42.684;23.260;2023-08-30T03:34:44;93660.88;;;20.64;73.89
12793;BME280;6460;42.684;23.260;2023-08-30T03:37:13;93651.81;;;20.67;74.03
12793;BME280;6460;42.684;23.260;2023-08-30T03:39:41;93654.28;;;20.74;74.20
12793;BME280;6460;42.684;23.260;2023-08-30T03:42:09;93656.09;;;20.90;73.23
12793;BME280;6460;42.684;23.260;2023-08-30T03:44:37;93647.94;;;21.12;72.72
12793;BME280;6460;42.684;23.260;2023-08-30T03:47:05;93650.34;;;21.09;73.00
12793;BME280;6460;42.684;23.260;2023-08-30T03:49:33;93651.72;;;21.36;71.98
12793;BME280;6460;42.684;23.260;2023-08-30T03:52:00;93658.78;;;21.46;71.98
12793;BME280;6460;42.684;23.260;2023-08-30T03:54:27;93671.56;;;21.49;72.07
12793;BME280;6460;42.684;23.260;2023-08-30T03:56:54;93680.22;;;21.47;72.00
12793;BME280;6460;42.684;23.260;2023-08-30T03:59:23;93678.50;;;21.41;72.68
12793;BME280;6460;42.684;23.260;2023-08-30T04:01:53;93682.31;;;21.43;71.54
12793;BME280;6460;42.684;23.260;2023-08-30T04:04:20;93682.38;;;21.52;69.82
12793;BME280;6460;42.684;23.260;2023-08-30T04:06:47;93682.38;;;21.52;71.21
12793;BME280;6460;42.684;23.260;2023-08-30T04:09:14;93673.31;;;21.64;71.71
12793;BME280;6460;42.684;23.260;2023-08-30T04:11:41;93674.22;;;21.61;72.43
12793;BME280;6460;42.684;23.260;2023-08-30T04:14:09;93673.88;;;21.81;72.07
12793;BME280;6460;42.684;23.260;2023-08-30T04:16:38;93697.81;;;21.68;71.31
12793;BME280;6460;42.684;23.260;2023-08-30T04:19:05;93698.94;;;22.01;69.88
12793;BME280;6460;42.684;23.260;2023-08-30T04:21:32;93693.78;;;22.12;70.25
12793;BME280;6460;42.684;23.260;2023-08-30T04:23:59;93699.66;;;22.02;70.18
12793;BME280;6460;42.684;23.260;2023-08-30T04:26:26;93702.44;;;21.80;71.89
12793;BME280;6460;42.684;23.260;2023-08-30T04:28:53;93714.56;;;22.01;71.48
12793;BME280;6460;42.684;23.260;2023-08-30T04:31:20;93737.22;;;21.80;71.59
12793;BME280;6460;42.684;23.260;2023-08-30T04:33:49;93755.41;;;21.95;70.39
12793;BME280;6460;42.684;23.260;2023-08-30T04:36:18;93760.88;;;21.95;68.96
12793;BME280;6460;42.684;23.260;2023-08-30T04:38:45;93748.34;;;21.07;69.70
12793;BME280;6460;42.684;23.260;2023-08-30T04:41:12;93745.03;;;21.25;68.88
12793;BME280;6460;42.684;23.260;2023-08-30T04:43:39;93753.22;;;21.38;68.33
12793;BME280;6460;42.684;23.260;2023-08-30T04:46:06;93768.25;;;21.21;68.25
12793;BME280;6460;42.684;23.260;2023-08-30T04:48:33;93774.91;;;20.60;70.62
12793;BME280;6460;42.684;23.260;2023-08-30T04:51:03;93780.91;;;20.68;70.94
12793;BME280;6460;42.684;23.260;2023-08-30T04:53:31;93793.25;;;20.47;72.39
12793;BME280;6460;42.684;23.260;2023-08-30T04:55:59;93755.47;;;20.33;75.71
12793;BME280;6460;42.684;23.260;2023-08-30T04:58:26;93741.78;;;20.07;77.13
12793;BME280;6460;42.684;23.260;2023-08-30T05:00:55;93751.59;;;20.05;77.18
12793;BME280;6460;42.684;23.260;2023-08-30T05:03:22;93765.97;;;19.80;80.12
12793;BME280;6460;42.684;23.260;2023-08-30T05:05:49;93766.16;;;19.61;81.76
12793;BME280;6460;42.684;23.260;2023-08-30T05:08:18;93750.72;;;19.41;82.92
12793;BME280;6460;42.684;23.260;2023-08-30T05:10:45;93751.28;;;19.49;83.74
12793;BME280;6460;42.684;23.260;2023-08-30T05:13:12;93752.56;;;19.44;82.80
12793;BME280;6460;42.684;23.260;2023-08-30T05:15:39;93748.91;;;19.35;83.82
12793;BME280;6460;42.684;23.260;2023-08-30T05:18:06;93747.50;;;19.59;82.52
12793;BME280;6460;42.684;23.260;2023-08-30T05:20:33;93744.56;;;19.66;81.31
12793;BME280;6460;42.684;23.260;2023-08-30T05:23:00;93750.59;;;19.74;81.26
12793;BME280;6460;42.684;23.260;2023-08-30T05:25:29;93748.31;;;19.85;81.55
12793;BME280;6460;42.684;23.260;2023-08-30T05:27:56;93743.22;;;19.99;81.11
12793;BME280;6460;42.684;23.260;2023-08-30T05:30:23;93756.38;;;19.88;81.33
12793;BME280;6460;42.684;23.260;2023-08-30T05:32:50;93752.50;;;20.15;80.12
12793;BME280;6460;42.684;23.260;2023-08-30T05:35:17;93754.34;;;20.18;80.63
12793;BME280;6460;42.684;23.260;2023-08-30T05:37:44;93746.50;;;20.20;80.05
12793;BME280;6460;42.684;23.260;2023-08-30T05:40:13;93745.97;;;20.37;79.67
12793;BME280;6460;42.684;23.260;2023-08-30T05:42:44;93743.97;;;20.63;78.14
12793;BME280;6460;42.684;23.260;2023-08-30T05:45:11;93738.03;;;20.77;78.14
12793;BME280;6460;42.684;23.260;2023-08-30T05:47:38;93740.31;;;20.91;77.99
12793;BME280;6460;42.684;23.260;2023-08-30T05:50:06;93739.19;;;21.14;76.17
12793;BME280;6460;42.684;23.260;2023-08-30T05:52:33;93738.66;;;21.41;74.34
12793;BME280;6460;42.684;23.260;2023-08-30T05:55:00;93740.63;;;21.62;71.57
12793;BME280;6460;42.684;23.260;2023-08-30T05:57:28;93743.72;;;21.73;71.63
12793;BME280;6460;42.684;23.260;2023-08-30T06:00:00;93746.91;;;21.72;71.50
12793;BME280;6460;42.684;23.260;2023-08-30T06:02:30;93747.41;;;21.79;70.98
12793;BME280;6460;42.684;23.260;2023-08-30T06:04:57;93748.47;;;22.03;68.94
12793;BME280;6460;42.684;23.260;2023-08-30T06:07:25;93747.91;;;22.08;68.85
12793;BME280;6460;42.684;23.260;2023-08-30T06:09:53;93746.88;;;22.15;67.53
12793;BME280;6460;42.684;23.260;2023-08-30T06:12:20;93739.34;;;21.97;67.52
12793;BME280;6460;42.684;23.260;2023-08-30T06:14:47;93741.88;;;22.23;67.17
12793;BME280;6460;42.684;23.260;2023-08-30T06:17:19;93739.81;;;22.36;66.14
12793;BME280;6460;42.684;23.260;2023-08-30T06:19:47;93736.69;;;22.55;65.91
12793;BME280;6460;42.684;23.260;2023-08-30T06:22:14;93736.56;;;22.59;64.70
12793;BME280;6460;42.684;23.260;2023-08-30T06:24:42;93749.84;;;22.70;64.96
12793;BME280;6460;42.684;23.260;2023-08-30T06:27:09;93752.44;;;22.73;65.23
12793;BME280;6460;42.684;23.260;2023-08-30T06:29:36;93747.03;;;23.18;62.14
12793;BME280;6460;42.684;23.260;2023-08-30T06:32:05;93740.03;;;23.08;63.25
12793;BME280;6460;42.684;23.260;2023-08-30T06:34:34;93748.56;;;23.29;62.12
12793;BME280;6460;42.684;23.260;2023-08-30T06:37:01;93736.09;;;23.64;61.46
12793;BME280;6460;42.684;23.260;2023-08-30T06:39:32;93747.34;;;23.39;61.76
12793;BME280;6460;42.684;23.260;2023-08-30T06:42:01;93745.69;;;23.50;60.11
12793;BME280;6460;42.684;23.260;2023-08-30T06:44:28;93745.22;;;23.52;60.47
12793;BME280;6460;42.684;23.260;2023-08-30T06:46:56;93749.63;;;23.86;58.85
12793;BME280;6460;42.684;23.260;2023-08-30T06:49:23;93748.84;;;23.94;58.75
12793;BME280;6460;42.684;23.260;2023-08-30T06:51:52;93748.53;;;24.01;59.13
12793;BME280;6460;42.684;23.260;2023-08-30T06:54:20;93746.69;;;24.07;61.93
12793;BME280;6460;42.684;23.260;2023-08-30T06:56:57;93745.31;;;24.21;60.90
12793;BME280;6460;42.684;23.260;2023-08-30T06:59:25;93745.81;;;23.92;61.60
12793;BME280;6460;42.684;23.260;2023-08-30T07:01:53;93742.00;;;23.71;62.61
12793;BME280;6460;42.684;23.260;2023-08-30T07:04:20;93745.22;;;23.70;62.33
12793;BME280;6460;42.684;23.260;2023-08-30T07:06:47;93742.44;;;23.88;60.76
12793;BME280;6460;42.684;23.260;2023-08-30T07:09:16;93744.56;;;24.02;60.40
12793;BME280;6460;42.684;23.260;2023-08-30T07:11:44;93741.16;;;24.26;59.81
12793;BME280;6460;42.684;23.260;2023-08-30T07:14:11;93755.13;;;24.46;59.74
12793;BME280;6460;42.684;23.260;2023-08-30T07:16:40;93743.88;;;24.67;58.08
12793;BME280;6460;42.684;23.260;2023-08-30T07:19:07;93746.00;;;24.72;57.00
12793;BME280;6460;42.684;23.260;2023-08-30T07:21:35;93748.78;;;24.63;56.91
12793;BME280;6460;42.684;23.260;2023-08-30T07:24:05;93752.97;;;24.50;58.10
12793;BME280;6460;42.684;23.260;2023-08-30T07:26:34;93751.59;;;24.87;56.97
12793;BME280;6460;42.684;23.260;2023-08-30T07:29:02;93749.84;;;25.22;55.14
12793;BME280;6460;42.684;23.260;2023-08-30T07:31:31;93748.34;;;24.98;54.22
12793;BME280;6460;42.684;23.260;2023-08-30T07:33:59;93755.28;;;24.84;54.82
12793;BME280;6460;42.684;23.260;2023-08-30T07:36:26;93751.31;;;25.09;54.54
12793;BME280;6460;42.684;23.260;2023-08-30T07:38:53;93752.94;;;25.39;53.29
12793;BME280;6460;42.684;23.260;2023-08-30T07:41:21;93748.84;;;25.35;51.88
12793;BME280;6460;42.684;23.260;2023-08-30T07:43:49;93745.50;;;25.54;52.53
12793;BME280;6460;42.684;23.260;2023-08-30T07:46:16;93739.97;;;25.78;52.01
12793;BME280;6460;42.684;23.260;2023-08-30T07:48:44;93740.13;;;25.89;50.48
12793;BME280;6460;42.684;23.260;2023-08-30T07:51:11;93736.81;;;26.14;49.43
12793;BME280;6460;42.684;23.260;2023-08-30T07:53:38;93741.09;;;26.30;49.10
12793;BME280;6460;42.684;23.260;2023-08-30T07:56:06;93746.63;;;26.15;49.05
12793;BME280;6460;42.684;23.260;2023-08-30T07:58:33;93748.91;;;26.17;49.31
12793;BME280;6460;42.684;23.260;2023-08-30T08:01:02;93752.41;;;26.47;47.19
12793;BME280;6460;42.684;23.260;2023-08-30T08:03:30;93753.63;;;26.46;45.45
12793;BME280;6460;42.684;23.260;2023-08-30T08:05:58;93751.63;;;26.46;45.97
12793;BME280;6460;42.684;23.260;2023-08-30T08:08:26;93753.97;;;26.68;45.31
12793;BME280;6460;42.684;23.260;2023-08-30T08:10:53;93750.59;;;26.93;43.58
12793;BME280;6460;42.684;23.260;2023-08-30T08:13:20;93746.09;;;27.30;42.88
12793;BME280;6460;42.684;23.260;2023-08-30T08:15:48;93753.84;;;27.47;42.06
12793;BME280;6460;42.684;23.260;2023-08-30T08:18:16;93747.97;;;27.39;41.30
12793;BME280;6460;42.684;23.260;2023-08-30T08:20:43;93745.84;;;27.49;42.11
12793;BME280;6460;42.684;23.260;2023-08-30T08:23:10;93756.63;;;27.47;42.54
12793;BME280;6460;42.684;23.260;2023-08-30T08:25:38;93763.22;;;27.00;41.94
12793;BME280;6460;42.684;23.260;2023-08-30T08:28:05;93759.97;;;26.81;43.30
12793;BME280;6460;42.684;23.260;2023-08-30T08:30:32;93767.84;;;26.88;41.74
12793;BME280;6460;42.684;23.260;2023-08-30T08:33:00;93774.38;;;27.05;41.79
12793;BME280;6460;42.684;23.260;2023-08-30T08:35:28;93772.22;;;27.50;41.16
12793;BME280;6460;42.684;23.260;2023-08-30T08:37:55;93771.34;;;27.23;42.40
12793;BME280;6460;42.684;23.260;2023-08-30T08:40:23;93758.38;;;27.70;42.27
12793;BME280;6460;42.684;23.260;2023-08-30T08:42:50;93759.72;;;28.00;42.29
12793;BME280;6460;42.684;23.260;2023-08-30T08:45:19;93763.44;;;27.51;43.23
12793;BME280;6460;42.684;23.260;2023-08-30T08:47:47;93755.22;;;27.37;44.26
12793;BME280;6460;42.684;23.260;2023-08-30T08:50:14;93747.47;;;27.81;43.30
12793;BME280;6460;42.684;23.260;2023-08-30T08:52:44;93754.34;;;27.91;42.10
12793;BME280;6460;42.684;23.260;2023-08-30T08:55:11;93756.31;;;27.85;41.12
12793;BME280;6460;42.684;23.260;2023-08-30T08:57:39;93747.03;;;27.88;41.53
12793;BME280;6460;42.684;23.260;2023-08-30T09:00:08;93759.22;;;27.15;42.85
12793;BME280;6460;42.684;23.260;2023-08-30T09:02:35;93746.50;;;27.64;42.10
12793;BME280;6460;42.684;23.260;2023-08-30T09:05:03;93738.31;;;27.69;42.19
12793;BME280;6460;42.684;23.260;2023-08-30T09:07:31;93735.28;;;27.93;41.44
12793;BME280;6460;42.684;23.260;2023-08-30T09:10:00;93739.09;;;28.21;40.95
12793;BME280;6460;42.684;23.260;2023-08-30T09:12:32;93738.69;;;28.34;40.79
12793;BME280;6460;42.684;23.260;2023-08-30T09:14:59;93740.44;;;28.31;41.00
12793;BME280;6460;42.684;23.260;2023-08-30T09:17:35;93729.72;;;28.45;40.68
12793;BME280;6460;42.684;23.260;2023-08-30T09:20:08;93730.72;;;28.73;40.19
12793;BME280;6460;42.684;23.260;2023-08-30T09:22:39;93733.22;;;28.71;40.73
12793;BME280;6460;42.684;23.260;2023-08-30T09:25:09;93727.72;;;28.45;42.21
12793;BME280;6460;42.684;23.260;2023-08-30T09:27:36;93736.13;;;28.87;41.25
12793;BME280;6460;42.684;23.260;2023-08-30T09:30:08;93728.56;;;28.57;42.37
12793;BME280;6460;42.684;23.260;2023-08-30T09:32:40;93740.13;;;28.55;39.39
12793;BME280;6460;42.684;23.260;2023-08-30T09:35:08;93729.31;;;28.57;39.14
12793;BME280;6460;42.684;23.260;2023-08-30T09:37:36;93731.97;;;28.72;38.99
12793;BME280;6460;42.684;23.260;2023-08-30T09:40:04;93725.41;;;28.69;40.14
12793;BME280;6460;42.684;23.260;2023-08-30T09:42:32;93735.94;;;29.02;39.41
12793;BME280;6460;42.684;23.260;2023-08-30T09:44:59;93729.41;;;29.05;40.25
12793;BME280;6460;42.684;23.260;2023-08-30T09:47:27;93730.63;;;29.47;38.84
12793;BME280;6460;42.684;23.260;2023-08-30T09:49:56;93722.66;;;29.71;38.80
12793;BME280;6460;42.684;23.260;2023-08-30T09:52:26;93730.06;;;29.31;38.73
12793;BME280;6460;42.684;23.260;2023-08-30T09:54:56;93718.91;;;28.72;39.25
12793;BME280;6460;42.684;23.260;2023-08-30T09:57:24;93714.97;;;28.22;40.08
12793;BME280;6460;42.684;23.260;2023-08-30T09:59:55;93711.94;;;28.88;39.38
12793;BME280;6460;42.684;23.260;2023-08-30T10:02:24;93710.13;;;28.74;39.84
12793;BME280;6460;42.684;23.260;2023-08-30T10:04:52;93726.53;;;29.25;39.05
12793;BME280;6460;42.684;23.260;2023-08-30T10:07:20;93704.19;;;29.40;37.24
12793;BME280;6460;42.684;23.260;2023-08-30T10:09:48;93716.88;;;29.15;37.86
12793;BME280;6460;42.684;23.260;2023-08-30T10:12:20;93715.13;;;29.18;37.52
12793;BME280;6460;42.684;23.260;2023-08-30T10:14:48;93694.66;;;29.47;36.88
12793;BME280;6460;42.684;23.260;2023-08-30T10:17:18;93703.00;;;29.69;36.46
12793;BME280;6460;42.684;23.260;2023-08-30T10:19:49;93707.56;;;29.72;36.38
12793;BME280;6460;42.684;23.260;2023-08-30T10:22:18;93691.50;;;30.09;36.49
12793;BME280;6460;42.684;23.260;2023-08-30T10:24:49;93693.53;;;30.25;35.62
12793;BME280;6460;42.684;23.260;2023-08-30T10:27:19;93695.06;;;30.15;35.41
12793;BME280;6460;42.684;23.260;2023-08-30T10:29:47;93702.88;;;29.24;36.36
12793;BME280;6460;42.684;23.260;2023-08-30T10:32:21;93696.22;;;29.64;36.06
12793;BME280;6460;42.684;23.260;2023-08-30T10:34:49;93695.56;;;30.14;36.47
12793;BME280;6460;42.684;23.260;2023-08-30T10:37:22;93704.78;;;29.66;36.95
12793;BME280;6460;42.684;23.260;2023-08-30T10:39:49;93697.72;;;29.65;36.87
12793;BME280;6460;42.684;23.260;2023-08-30T10:42:17;93707.00;;;29.57;37.08
12793;BME280;6460;42.684;23.260;2023-08-30T10:44:48;93694.28;;;30.09;34.42
12793;BME280;6460;42.684;23.260;2023-08-30T10:47:20;93681.69;;;29.97;32.98
12793;BME280;6460;42.684;23.260;2023-08-30T10:49:47;93679.44;;;30.34;32.31
12793;BME280;6460;42.684;23.260;2023-08-30T10:52:15;93693.16;;;29.57;33.93
12793;BME280;6460;42.684;23.260;2023-08-30T10:54:42;93681.84;;;29.01;33.99
12793;BME280;6460;42.684;23.260;2023-08-30T10:57:13;93699.19;;;28.96;34.63
12793;BME280;6460;42.684;23.260;2023-08-30T11:00:03;93691.66;;;29.56;32.88
12793;BME280;6460;42.684;23.260;2023-08-30T11:02:33;93671.09;;;29.14;32.74
12793;BME280;6460;42.684;23.260;2023-08-30T11:05:01;93686.38;;;29.58;33.16
12793;BME280;6460;42.684;23.260;2023-08-30T11:07:29;93680.78;;;29.47;32.25
12793;BME280;6460;42.684;23.260;2023-08-30T11:09:57;93676.38;;;29.82;31.53
12793;BME280;6460;42.684;23.260;2023-08-30T11:12:24;93676.06;;;29.64;30.79
12793;BME280;6460;42.684;23.260;2023-08-30T11:14:52;93676.84;;;29.81;30.11
12793;BME280;6460;42.684;23.260;2023-08-30T11:17:20;93671.38;;;29.86;30.35
12793;BME280;6460;42.684;23.260;2023-08-30T11:19:51;93663.72;;;29.65;29.33
12793;BME280;6460;42.684;23.260;2023-08-30T11:22:18;93681.63;;;29.10;27.63
12793;BME280;6460;42.684;23.260;2023-08-30T11:24:47;93666.25;;;28.56;29.36
12793;BME280;6460;42.684;23.260;2023-08-30T11:27:17;93664.66;;;28.80;28.82
12793;BME280;6460;42.684;23.260;2023-08-30T11:29:44;93659.41;;;29.53;27.81
12793;BME280;6460;42.684;23.260;2023-08-30T11:32:11;93649.81;;;29.31;28.54
12793;BME280;6460;42.684;23.260;2023-08-30T11:34:38;93655.44;;;29.76;28.06
12793;BME280;6460;42.684;23.260;2023-08-30T11:37:07;93647.81;;;28.84;30.17
12793;BME280;6460;42.684;23.260;2023-08-30T11:39:35;93636.78;;;28.95;29.72
12793;BME280;6460;42.684;23.260;2023-08-30T11:42:03;93643.75;;;29.33;28.34
12793;BME280;6460;42.684;23.260;2023-08-30T11:44:32;93647.34;;;29.50;29.25
12793;BME280;6460;42.684;23.260;2023-08-30T11:47:00;93637.34;;;29.91;27.65
12793;BME280;6460;42.684;23.260;2023-08-30T11:49:28;93637.88;;;30.40;26.38
12793;BME280;6460;42.684;23.260;2023-08-30T11:51:55;93644.88;;;30.69;26.00
12793;BME280;6460;42.684;23.260;2023-08-30T11:54:25;93617.69;;;29.84;27.86
12793;BME280;6460;42.684;23.260;2023-08-30T11:56:53;93639.38;;;30.08;27.75
12793;BME280;6460;42.684;23.260;2023-08-30T11:59:21;93630.31;;;30.02;28.46
12793;BME280;6460;42.684;23.260;2023-08-30T12:01:48;93618.81;;;31.05;27.36
12793;BME280;6460;42.684;23.260;2023-08-30T12:04:16;93615.28;;;31.62;26.65
12793;BME280;6460;42.684;23.260;2023-08-30T12:06:46;93623.09;;;31.64;25.71
12793;BME280;6460;42.684;23.260;2023-08-30T12:09:18;93640.63;;;30.46;26.51
12793;BME280;6460;42.684;23.260;2023-08-30T12:11:48;93631.25;;;29.65;27.59
12793;BME280;6460;42.684;23.260;2023-08-30T12:14:16;93628.78;;;30.28;26.18
12793;BME280;6460;42.684;23.260;2023-08-30T12:16:43;93633.53;;;30.67;25.49
12793;BME280;6460;42.684;23.260;2023-08-30T12:19:12;93622.16;;;30.81;25.37
12793;BME280;6460;42.684;23.260;2023-08-30T12:21:43;93615.94;;;31.27;25.79
12793;BME280;6460;42.684;23.260;2023-08-30T12:24:10;93620.72;;;30.36;25.64
12793;BME280;6460;42.684;23.260;2023-08-30T12:26:37;93605.38;;;30.40;25.64
12793;BME280;6460;42.684;23.260;2023-08-30T12:29:06;93596.88;;;30.90;25.01
12793;BME280;6460;42.684;23.260;2023-08-30T12:31:34;93632.03;;;30.38;24.37
12793;BME280;6460;42.684;23.260;2023-08-30T12:34:01;93609.63;;;29.97;24.85
12793;BME280;6460;42.684;23.260;2023-08-30T12:36:28;93598.66;;;30.88;24.21
12793;BME280;6460;42.684;23.260;2023-08-30T12:38:57;93595.84;;;31.57;22.78
12793;BME280;6460;42.684;23.260;2023-08-30T12:41:24;93590.78;;;31.14;23.32
12793;BME280;6460;42.684;23.260;2023-08-30T12:43:51;93588.22;;;31.63;22.86
12793;BME280;6460;42.684;23.260;2023-08-30T12:46:21;93605.06;;;30.66;22.87
12793;BME280;6460;42.684;23.260;2023-08-30T12:48:48;93594.97;;;30.69;23.17
12793;BME280;6460;42.684;23.260;2023-08-30T12:51:15;93590.97;;;30.53;23.67
12793;BME280;6460;42.684;23.260;2023-08-30T12:53:42;93584.44;;;30.06;24.57
12793;BME280;6460;42.684;23.260;2023-08-30T12:56:09;93578.13;;;30.33;24.07
12793;BME280;6460;42.684;23.260;2023-08-30T12:58:36;93573.34;;;31.14;22.98
12793;BME280;6460;42.684;23.260;2023-08-30T13:01:03;93594.03;;;31.13;23.04
12793;BME280;6460;42.684;23.260;2023-08-30T13:03:31;93595.28;;;30.21;23.86
12793;BME280;6460;42.684;23.260;2023-08-30T13:05:58;93585.03;;;31.01;23.41
12793;BME280;6460;42.684;23.260;2023-08-30T13:08:25;93575.41;;;31.08;23.19